sensor_id;sensor_type;location;lat;lon;timestamp;pressure;altitude;pressure_sealevel;temperature;humidity
62011;BME280;47967;51.756;10.174;2024-02-04T05:01:23;100039.22;;;9.20;100.00
62011;BME280;47967;51.756;10.174;2024-02-04T05:05:25;100031.25;;;9.27;100.00
62011;BME280;47967;51.756;10.174;2024-02-04T05:09:28;100043.63;;;9.36;100.00
62011;BME280;47967;51.756;10.174;2024-02-04T05:13:31;100054.66;;;9.41;100.00
62011;BME280;47967;51.756;10.174;2024-02-04T05:17:34;100041.66;;;9.60;100.00
62011;BME280;47967;51.756;10.174;2024-02-04T05:21:37;100045.28;;;9.67;100.00
62011;BME280;47967;51.756;10.174;2024-02-04T05:25:40;100047.59;;;9.70;100.00
62011;BME280;47967;51.756;10.174;2024-02-04T05:29:42;100047.75;;;9.84;100.00
62011;BME280;47967;51.756;10.174;2024-02-04T05:33:47;100048.50;;;9.92;100.00
62011;BME280;47967;51.756;10.174;2024-02-04T05:37:50;100045.06;;;9.99;100.00
62011;BME280;47967;51.756;10.174;2024-02-04T05:41:52;100069.66;;;9.96;100.00
62011;BME280;47967;51.756;10.174;2024-02-04T05:45:55;100052.75;;;10.02;100.00
62011;BME280;47967;51.756;10.174;2024-02-04T05:49:59;100073.28;;;10.03;100.00
62011;BME280;47967;51.756;10.174;2024-02-04T05:54:02;100079.91;;;10.00;100.00
62011;BME280;47967;51.756;10.174;2024-02-04T05:58:04;100085.56;;;10.05;100.00
62011;BME280;47967;51.756;10.174;2024-02-04T06:02:07;100091.88;;;9.98;100.00
62011;BME280;47967;51.756;10.174;2024-02-04T06:06:15;100086.41;;;9.91;100.00
62011;BME280;47967;51.756;10.174;2024-02-04T06:10:18;100100.06;;;9.89;100.00
62011;BME280;47967;51.756;10.174;2024-02-04T06:14:20;100099.41;;;9.87;100.00
62011;BME280;47967;51.756;10.174;2024-02-04T06:18:23;100078.50;;;9.89;100.00
62011;BME280;47967;51.756;10.174;2024-02-04T06:22:27;100082.25;;;9.73;100.00
62011;BME280;47967;51.756;10.174;2024-02-04T06:26:29;100077.53;;;9.75;100.00
62011;BME280;47967;51.756;10.174;2024-02-04T06:30:32;100071.38;;;9.82;100.00
62011;BME280;47967;51.756;10.174;2024-02-04T06:34:34;100070.97;;;9.85;100.00
62011;BME280;47967;51.756;10.174;2024-02-04T06:38:38;100062.44;;;9.81;100.00
62011;BME280;47967;51.756;10.174;2024-02-04T06:42:41;100051.19;;;9.77;100.00
62011;BME280;47967;51.756;10.174;2024-02-04T06:46:43;100049.91;;;9.73;100.00
62011;BME280;47967;51.756;10.174;2024-02-04T06:50:46;100042.09;;;9.78;100.00
62011;BME280;47967;51.756;10.174;2024-02-04T06:54:50;100034.47;;;9.82;100.00
62011;BME280;47967;51.756;10.174;2024-02-04T06:58:53;100028.06;;;9.83;100.00
62011;BME280;47967;51.756;10.174;2024-02-04T07:02:55;100022.31;;;9.86;100.00
62011;BME280;47967;51.756;10.174;2024-02-04T07:06:58;100023.50;;;9.84;100.00
62011;BME280;47967;51.756;10.174;2024-02-04T07:11:01;100043.97;;;9.78;100.00
62011;BME280;47967;51.756;10.174;2024-02-04T07:15:04;100051.69;;;9.66;100.00
62011;BME280;47967;51.756;10.174;2024-02-04T07:19:07;100057.75;;;9.53;100.00
62011;BME280;47967;51.756;10.174;2024-02-04T07:23:10;100051.97;;;9.41;100.00
62011;BME280;47967;51.756;10.174;2024-02-04T07:27:14;100070.44;;;9.44;100.00
62011;BME280;47967;51.756;10.174;2024-02-04T07:31:17;100054.47;;;9.58;100.00
62011;BME280;47967;51.756;10.174;2024-02-04T07:35:20;100047.13;;;9.52;100.00
62011;BME280;47967;51.756;10.174;2024-02-04T07:39:23;100027.47;;;9.51;100.00
62011;BME280;47967;51.756;10.174;2024-02-04T07:43:26;100017.63;;;9.58;100.00
62011;BME280;47967;51.756;10.174;2024-02-04T07:47:29;100030.31;;;9.65;100.00
62011;BME280;47967;51.756;10.174;2024-02-04T07:51:32;100033.94;;;9.72;100.00
62011;BME280;47967;51.756;10.174;2024-02-04T07:55:36;100015.25;;;9.70;100.00
62011;BME280;47967;51.756;10.174;2024-02-04T07:59:40;100024.91;;;9.80;100.00
62011;BME280;47967;51.756;10.174;2024-02-04T08:03:43;100036.34;;;9.82;100.00
62011;BME280;47967;51.756;10.174;2024-02-04T08:07:48;100030.97;;;9.82;100.00
62011;BME280;47967;51.756;10.174;2024-02-04T08:11:51;99993.13;;;9.90;100.00
62011;BME280;47967;51.756;10.174;2024-02-04T08:15:58;100007.88;;;9.94;100.00
62011;BME280;47967;51.756;10.174;2024-02-04T08:20:00;100012.13;;;10.03;100.00
62011;BME280;47967;51.756;10.174;2024-02-04T08:24:06;100005.25;;;10.01;100.00
62011;BME280;47967;51.756;10.174;2024-02-04T08:28:08;99992.06;;;10.06;100.00
62011;BME280;47967;51.756;10.174;2024-02-04T08:32:12;99985.91;;;9.97;100.00
62011;BME280;47967;51.756;10.174;2024-02-04T08:36:15;99965.78;;;9.93;100.00
62011;BME280;47967;51.756;10.174;2024-02-04T08:40:17;99964.97;;;9.92;100.00
62011;BME280;47967;51.756;10.174;2024-02-04T08:44:20;99961.28;;;10.00;100.00
62011;BME280;47967;51.756;10.174;2024-02-04T08:48:40;99967.00;;;9.90;100.00
62011;BME280;47967;51.756;10.174;2024-02-04T08:52:43;99961.97;;;9.87;100.00
62011;BME280;47967;51.756;10.174;2024-02-04T08:56:45;99972.94;;;9.86;100.00
62011;BME280;47967;51.756;10.174;2024-02-04T09:00:48;99970.66;;;9.83;100.00
62011;BME280;47967;51.756;10.174;2024-02-04T09:04:52;99979.75;;;9.82;100.00
62011;BME280;47967;51.756;10.174;2024-02-04T09:08:55;99975.28;;;9.74;100.00
62011;BME280;47967;51.756;10.174;2024-02-04T09:12:57;99979.59;;;9.68;100.00
62011;BME280;47967;51.756;10.174;2024-02-04T09:17:01;99982.03;;;9.63;100.00
62011;BME280;47967;51.756;10.174;2024-02-04T09:21:06;99976.94;;;9.53;100.00
62011;BME280;47967;51.756;10.174;2024-02-04T09:25:09;99975.34;;;9.59;100.00
62011;BME280;47967;51.756;10.174;2024-02-04T09:29:11;99977.75;;;9.54;100.00
62011;BME280;47967;51.756;10.174;2024-02-04T09:33:14;99985.38;;;9.50;100.00
62011;BME280;47967;51.756;10.174;2024-02-04T09:37:18;100008.41;;;9.53;100.00
62011;BME280;47967;51.756;10.174;2024-02-04T09:41:21;100020.94;;;9.45;100.00
62011;BME280;47967;51.756;10.174;2024-02-04T09:45:24;100014.66;;;9.23;100.00
62011;BME280;47967;51.756;10.174;2024-02-04T09:49:26;100015.31;;;9.25;100.00
62011;BME280;47967;51.756;10.174;2024-02-04T09:53:32;100020.66;;;9.10;100.00
62011;BME280;47967;51.756;10.174;2024-02-04T09:57:35;100027.78;;;9.03;100.00
62011;BME280;47967;51.756;10.174;2024-02-04T10:01:38;100029.38;;;8.97;100.00
62011;BME280;47967;51.756;10.174;2024-02-04T10:05:41;100025.75;;;9.05;100.00
62011;BME280;47967;51.756;10.174;2024-02-04T10:09:45;100012.22;;;9.13;100.00
62011;BME280;47967;51.756;10.174;2024-02-04T10:13:48;100018.75;;;9.19;100.00
62011;BME280;47967;51.756;10.174;2024-02-04T10:17:51;100032.94;;;9.28;100.00
62011;BME280;47967;51.756;10.174;2024-02-04T10:21:58;100015.94;;;9.12;100.00
62011;BME280;47967;51.756;10.174;2024-02-04T10:26:03;100020.31;;;9.13;100.00
62011;BME280;47967;51.756;10.174;2024-02-04T10:30:08;100031.91;;;9.14;100.00
62011;BME280;47967;51.756;10.174;2024-02-04T10:34:11;100020.22;;;9.22;100.00
62011;BME280;47967;51.756;10.174;2024-02-04T10:38:13;100005.00;;;9.29;100.00
62011;BME280;47967;51.756;10.174;2024-02-04T10:42:17;100021.97;;;9.29;100.00
62011;BME280;47967;51.756;10.174;2024-02-04T10:46:24;100004.81;;;9.31;100.00
62011;BME280;47967;51.756;10.174;2024-02-04T10:50:30;100011.47;;;9.20;100.00
62011;BME280;47967;51.756;10.174;2024-02-04T10:54:35;100009.63;;;9.20;100.00
62011;BME280;47967;51.756;10.174;2024-02-04T10:58:42;100021.16;;;9.29;100.00
62011;BME280;47967;51.756;10.174;2024-02-04T11:02:46;100013.63;;;9.39;100.00
62011;BME280;47967;51.756;10.174;2024-02-04T11:06:50;100013.25;;;9.42;100.00
62011;BME280;47967;51.756;10.174;2024-02-04T11:10:53;100013.25;;;9.42;100.00
62011;BME280;47967;51.756;10.174;2024-02-04T11:14:57;99996.34;;;9.49;100.00
62011;BME280;47967;51.756;10.174;2024-02-04T11:19:08;99990.66;;;9.43;100.00
62011;BME280;47967;51.756;10.174;2024-02-04T11:23:24;99971.56;;;9.53;100.00
62011;BME280;47967;51.756;10.174;2024-02-04T11:27:30;99976.66;;;9.48;100.00
62011;BME280;47967;51.756;10.174;2024-02-04T11:31:34;99967.03;;;9.39;100.00
62011;BME280;47967;51.756;10.174;2024-02-04T11:35:37;99969.97;;;9.44;100.00
62011;BME280;47967;51.756;10.174;2024-02-04T11:39:47;99973.34;;;9.46;100.00
62011;BME280;47967;51.756;10.174;2024-02-04T11:43:51;99984.56;;;9.35;100.00
62011;BME280;47967;51.756;10.174;2024-02-04T11:48:01;99967.13;;;9.16;100.00
62011;BME280;47967;51.756;10.174;2024-02-04T11:52:04;99973.59;;;9.06;100.00
62011;BME280;47967;51.756;10.174;2024-02-04T11:56:07;99968.50;;;8.81;100.00
62011;BME280;47967;51.756;10.174;2024-02-04T12:00:10;99958.94;;;8.94;100.00
62011;BME280;47967;51.756;10.174;2024-02-04T12:04:15;99957.38;;;9.00;100.00
62011;BME280;47967;51.756;10.174;2024-02-04T12:08:17;99958.75;;;9.10;100.00
62011;BME280;47967;51.756;10.174;2024-02-04T12:12:21;99952.75;;;9.08;100.00
62011;BME280;47967;51.756;10.174;2024-02-04T12:16:25;99950.22;;;9.07;100.00
62011;BME280;47967;51.756;10.174;2024-02-04T12:20:29;99955.25;;;9.10;100.00
62011;BME280;47967;51.756;10.174;2024-02-04T12:24:31;99953.19;;;9.27;100.00
62011;BME280;47967;51.756;10.174;2024-02-04T12:28:34;99936.31;;;9.18;100.00
62011;BME280;47967;51.756;10.174;2024-02-04T12:32:37;99947.41;;;9.30;100.00
62011;BME280;47967;51.756;10.174;2024-02-04T12:36:41;99948.06;;;9.32;100.00
62011;BME280;47967;51.756;10.174;2024-02-04T12:40:47;99948.25;;;9.45;100.00
62011;BME280;47967;51.756;10.174;2024-02-04T12:44:50;99939.22;;;9.53;100.00
62011;BME280;47967;51.756;10.174;2024-02-04T12:48:53;99933.50;;;9.41;100.00
62011;BME280;47967;51.756;10.174;2024-02-04T12:53:04;99941.09;;;9.38;100.00
62011;BME280;47967;51.756;10.174;2024-02-04T12:57:07;99931.53;;;9.50;100.00
62011;BME280;47967;51.756;10.174;2024-02-04T13:01:12;99918.13;;;9.57;100.00
62011;BME280;47967;51.756;10.174;2024-02-04T13:05:21;99916.63;;;9.54;100.00
62011;BME280;47967;51.756;10.174;2024-02-04T13:09:26;99907.19;;;9.43;100.00
62011;BME280;47967;51.756;10.174;2024-02-04T13:13:29;99914.69;;;9.48;100.00
62011;BME280;47967;51.756;10.174;2024-02-04T13:17:31;99902.00;;;9.42;100.00
62011;BME280;47967;51.756;10.174;2024-02-04T13:21:34;99909.28;;;9.26;100.00
62011;BME280;47967;51.756;10.174;2024-02-04T13:25:38;99903.44;;;9.23;100.00
62011;BME280;47967;51.756;10.174;2024-02-04T13:29:40;99897.47;;;9.27;100.00
62011;BME280;47967;51.756;10.174;2024-02-04T13:33:43;99898.06;;;9.08;100.00
62011;BME280;47967;51.756;10.174;2024-02-04T13:37:46;99882.59;;;8.95;100.00
62011;BME280;47967;51.756;10.174;2024-02-04T13:41:53;99883.22;;;9.12;100.00
62011;BME280;47967;51.756;10.174;2024-02-04T13:45:56;99872.25;;;9.13;100.00
62011;BME280;47967;51.756;10.174;2024-02-04T13:49:58;99866.47;;;9.17;100.00
62011;BME280;47967;51.756;10.174;2024-02-04T13:54:01;99868.25;;;9.24;100.00
62011;BME280;47967;51.756;10.174;2024-02-04T13:58:05;99867.41;;;9.24;100.00
62011;BME280;47967;51.756;10.174;2024-02-04T14:02:08;99865.31;;;9.41;100.00
62011;BME280;47967;51.756;10.174;2024-02-04T14:06:10;99860.38;;;9.44;100.00
62011;BME280;47967;51.756;10.174;2024-02-04T14:10:14;99850.59;;;9.58;100.00
62011;BME280;47967;51.756;10.174;2024-02-04T14:14:18;99847.53;;;9.83;100.00
62011;BME280;47967;51.756;10.174;2024-02-04T14:18:20;99839.06;;;9.86;100.00
62011;BME280;47967;51.756;10.174;2024-02-04T14:22:23;99832.81;;;9.86;100.00
62011;BME280;47967;51.756;10.174;2024-02-04T14:26:25;99830.19;;;9.92;100.00
62011;BME280;47967;51.756;10.174;2024-02-04T14:30:29;99835.47;;;9.79;100.00
62011;BME280;47967;51.756;10.174;2024-02-04T14:34:32;99837.72;;;9.75;100.00
62011;BME280;47967;51.756;10.174;2024-02-04T14:38:35;99834.38;;;9.73;100.00
62011;BME280;47967;51.756;10.174;2024-02-04T14:42:40;99823.41;;;9.53;100.00
62011;BME280;47967;51.756;10.174;2024-02-04T14:46:45;99821.53;;;9.32;100.00
62011;BME280;47967;51.756;10.174;2024-02-04T14:50:49;99822.94;;;9.28;100.00
62011;BME280;47967;51.756;10.174;2024-02-04T14:54:51;99816.03;;;9.04;100.00
62011;BME280;47967;51.756;10.174;2024-02-04T14:58:54;99828.59;;;8.81;100.00
62011;BME280;47967;51.756;10.174;2024-02-04T15:02:58;99842.81;;;8.75;100.00
62011;BME280;47967;51.756;10.174;2024-02-04T15:07:01;99828.50;;;8.60;100.00
62011;BME280;47967;51.756;10.174;2024-02-04T15:11:05;99817.19;;;8.64;100.00
62011;BME280;47967;51.756;10.174;2024-02-04T15:15:09;99841.41;;;8.64;100.00
62011;BME280;47967;51.756;10.174;2024-02-04T15:19:13;99844.66;;;8.60;100.00
62011;BME280;47967;51.756;10.174;2024-02-04T15:23:16;99837.31;;;8.54;100.00
62011;BME280;47967;51.756;10.174;2024-02-04T15:27:19;99822.59;;;8.49;100.00
62011;BME280;47967;51.756;10.174;2024-02-04T15:31:22;99818.84;;;8.51;100.00
62011;BME280;47967;51.756;10.174;2024-02-04T15:35:26;99810.63;;;8.52;100.00
62011;BME280;47967;51.756;10.174;2024-02-04T15:39:29;99798.47;;;8.56;100.00
62011;BME280;47967;51.756;10.174;2024-02-04T15:43:32;99800.97;;;8.58;100.00
62011;BME280;47967;51.756;10.174;2024-02-04T15:47:34;99810.91;;;8.57;100.00
62011;BME280;47967;51.756;10.174;2024-02-04T15:51:42;99807.56;;;8.55;100.00
62011;BME280;47967;51.756;10.174;2024-02-04T15:55:44;99817.09;;;8.58;100.00
62011;BME280;47967;51.756;10.174;2024-02-04T15:59:48;99803.50;;;8.59;100.00
62011;BME280;47967;51.756;10.174;2024-02-04T16:03:51;99806.34;;;8.58;100.00
62011;BME280;47967;51.756;10.174;2024-02-04T16:07:57;99805.41;;;8.51;100.00
62011;BME280;47967;51.756;10.174;2024-02-04T16:12:04;99819.41;;;8.46;100.00
62011;BME280;47967;51.756;10.174;2024-02-04T16:16:07;99810.69;;;8.44;100.00
62011;BME280;47967;51.756;10.174;2024-02-04T16:20:11;99802.09;;;8.48;100.00
62011;BME280;47967;51.756;10.174;2024-02-04T16:24:15;99817.25;;;8.41;100.00
62011;BME280;47967;51.756;10.174;2024-02-04T16:28:18;99808.06;;;8.36;100.00
62011;BME280;47967;51.756;10.174;2024-02-04T16:32:20;99804.25;;;8.30;100.00
62011;BME280;47967;51.756;10.174;2024-02-04T16:36:23;99820.03;;;8.33;100.00
62011;BME280;47967;51.756;10.174;2024-02-04T16:40:27;99811.50;;;8.29;100.00
62011;BME280;47967;51.756;10.174;2024-02-04T16:44:29;99827.06;;;8.19;100.00
62011;BME280;47967;51.756;10.174;2024-02-04T16:48:32;99809.63;;;8.30;100.00
62011;BME280;47967;51.756;10.174;2024-02-04T16:52:35;99811.31;;;8.31;100.00
62011;BME280;47967;51.756;10.174;2024-02-04T16:56:39;99815.41;;;8.27;100.00
62011;BME280;47967;51.756;10.174;2024-02-04T17:00:41;99809.28;;;8.33;100.00
62011;BME280;47967;51.756;10.174;2024-02-04T17:04:47;99793.16;;;8.33;100.00
62011;BME280;47967;51.756;10.174;2024-02-04T17:08:52;99794.72;;;8.27;100.00
62011;BME280;47967;51.756;10.174;2024-02-04T17:12:56;99781.75;;;8.31;100.00
62011;BME280;47967;51.756;10.174;2024-02-04T17:17:02;99777.22;;;8.31;100.00
62011;BME280;47967;51.756;10.174;2024-02-04T17:21:08;99766.63;;;8.30;100.00
62011;BME280;47967;51.756;10.174;2024-02-04T17:25:12;99774.59;;;8.38;100.00
62011;BME280;47967;51.756;10.174;2024-02-04T17:29:21;99774.88;;;8.43;100.00
62011;BME280;47967;51.756;10.174;2024-02-04T17:33:24;99769.84;;;8.48;100.00
62011;BME280;47967;51.756;10.174;2024-02-04T17:37:27;99779.06;;;8.46;100.00
62011;BME280;47967;51.756;10.174;2024-02-04T17:41:30;99768.22;;;8.54;100.00
62011;BME280;47967;51.756;10.174;2024-02-04T17:45:33;99756.84;;;8.52;100.00
62011;BME280;47967;51.756;10.174;2024-02-04T17:49:36;99760.63;;;8.58;100.00
62011;BME280;47967;51.756;10.174;2024-02-04T17:53:39;99750.31;;;8.61;100.00
62011;BME280;47967;51.756;10.174;2024-02-04T17:57:44;99756.38;;;8.63;100.00
62011;BME280;47967;51.756;10.174;2024-02-04T18:01:48;99757.28;;;8.71;100.00
62011;BME280;47967;51.756;10.174;2024-02-04T18:05:50;99759.03;;;8.78;100.00
62011;BME280;47967;51.756;10.174;2024-02-04T18:09:53;99763.19;;;8.81;100.00
62011;BME280;47967;51.756;10.174;2024-02-04T18:13:56;99751.66;;;8.87;100.00
62011;BME280;47967;51.756;10.174;2024-02-04T18:18:01;99736.41;;;8.73;100.00
62011;BME280;47967;51.756;10.174;2024-02-04T18:22:03;99730.53;;;8.84;100.00
62011;BME280;47967;51.756;10.174;2024-02-04T18:26:06;99729.69;;;8.84;100.00
62011;BME280;47967;51.756;10.174;2024-02-04T18:30:10;99733.03;;;8.86;100.00
62011;BME280;47967;51.756;10.174;2024-02-04T18:34:15;99735.91;;;8.84;100.00
62011;BME280;47967;51.756;10.174;2024-02-04T18:38:18;99735.97;;;8.91;100.00
62011;BME280;47967;51.756;10.174;2024-02-04T18:42:20;99730.94;;;9.03;100.00
62011;BME280;47967;51.756;10.174;2024-02-04T18:46:23;99721.09;;;9.10;100.00
62011;BME280;47967;51.756;10.174;2024-02-04T18:50:27;99724.03;;;9.15;100.00
62011;BME280;47967;51.756;10.174;2024-02-04T18:54:30;99717.63;;;9.16;100.00
62011;BME280;47967;51.756;10.174;2024-02-04T18:58:35;99712.88;;;9.18;100.00
62011;BME280;47967;51.756;10.174;2024-02-04T19:02:37;99716.19;;;9.20;100.00
62011;BME280;47967;51.756;10.174;2024-02-04T19:06:41;99704.97;;;9.17;100.00
62011;BME280;47967;51.756;10.174;2024-02-04T19:10:49;99699.44;;;9.18;100.00
62011;BME280;47967;51.756;10.174;2024-02-04T19:14:52;99697.34;;;9.20;100.00
62011;BME280;47967;51.756;10.174;2024-02-04T19:18:55;99700.66;;;9.16;100.00
62011;BME280;47967;51.756;10.174;2024-02-04T19:22:59;99695.50;;;9.21;100.00
62011;BME280;47967;51.756;10.174;2024-02-04T19:27:01;99702.13;;;9.18;100.00
62011;BME280;47967;51.756;10.174;2024-02-04T19:31:04;99702.56;;;9.22;100.00
62011;BME280;47967;51.756;10.174;2024-02-04T19:35:07;99702.81;;;9.27;100.00
62011;BME280;47967;51.756;10.174;2024-02-04T19:39:11;99698.84;;;9.23;100.00
62011;BME280;47967;51.756;10.174;2024-02-04T19:43:13;99687.31;;;9.29;100.00
62011;BME280;47967;51.756;10.174;2024-02-04T19:47:16;99673.19;;;9.27;100.00
62011;BME280;47967;51.756;10.174;2024-02-04T19:51:19;99668.91;;;9.33;100.00
62011;BME280;47967;51.756;10.174;2024-02-04T19:55:23;99672.88;;;9.37;100.00
62011;BME280;47967;51.756;10.174;2024-02-04T19:59:25;99643.63;;;9.34;100.00
62011;BME280;47967;51.756;10.174;2024-02-04T20:03:28;99639.75;;;9.36;100.00
62011;BME280;47967;51.756;10.174;2024-02-04T20:07:30;99630.88;;;9.42;100.00
62011;BME280;47967;51.756;10.174;2024-02-04T20:11:34;99629.31;;;9.55;100.00
62011;BME280;47967;51.756;10.174;2024-02-04T20:15:37;99648.25;;;9.68;100.00
62011;BME280;47967;51.756;10.174;2024-02-04T20:19:39;99643.75;;;9.82;100.00
62011;BME280;47967;51.756;10.174;2024-02-04T20:23:42;99635.91;;;9.87;100.00
62011;BME280;47967;51.756;10.174;2024-02-04T20:27:46;99640.94;;;9.97;100.00
62011;BME280;47967;51.756;10.174;2024-02-04T20:31:49;99633.53;;;10.06;100.00
62011;BME280;47967;51.756;10.174;2024-02-04T20:35:51;99627.78;;;10.22;100.00
62011;BME280;47967;51.756;10.174;2024-02-04T20:39:58;99628.84;;;10.28;100.00
62011;BME280;47967;51.756;10.174;2024-02-04T20:44:02;99622.00;;;10.32;100.00
62011;BME280;47967;51.756;10.174;2024-02-04T20:48:05;99628.44;;;10.31;100.00
62011;BME280;47967;51.756;10.174;2024-02-04T20:52:08;99634.53;;;10.40;100.00
62011;BME280;47967;51.756;10.174;2024-02-04T20:56:13;99632.66;;;10.47;100.00
62011;BME280;47967;51.756;10.174;2024-02-04T21:00:17;99627.09;;;10.55;100.00
62011;BME280;47967;51.756;10.174;2024-02-04T21:04:19;99626.72;;;10.65;100.00
62011;BME280;47967;51.756;10.174;2024-02-04T21:08:22;99636.91;;;10.70;100.00
62011;BME280;47967;51.756;10.174;2024-02-04T21:12:25;99633.16;;;10.78;100.00
62011;BME280;47967;51.756;10.174;2024-02-04T21:16:29;99641.91;;;10.86;100.00
62011;BME280;47967;51.756;10.174;2024-02-04T21:20:32;99624.66;;;10.87;100.00
62011;BME280;47967;51.756;10.174;2024-02-04T21:24:34;99627.38;;;10.87;100.00
62011;BME280;47967;51.756;10.174;2024-02-04T21:28:37;99622.00;;;10.94;100.00
62011;BME280;47967;51.756;10.174;2024-02-04T21:32:43;99615.78;;;11.07;100.00
62011;BME280;47967;51.756;10.174;2024-02-04T21:36:49;99612.22;;;11.07;100.00
62011;BME280;47967;51.756;10.174;2024-02-04T21:40:52;99599.75;;;11.05;100.00
62011;BME280;47967;51.756;10.174;2024-02-04T21:44:54;99591.69;;;11.12;100.00
62011;BME280;47967;51.756;10.174;2024-02-04T21:48:58;99582.53;;;11.07;100.00
62011;BME280;47967;51.756;10.174;2024-02-04T21:53:02;99586.09;;;11.07;100.00
62011;BME280;47967;51.756;10.174;2024-02-04T21:57:06;99580.69;;;10.94;100.00
